Time;durP1;ratioP1;P1;durP2;ratioP2;P2;SDS_P1;SDS_P2;PMS_P1;PMS_P2;Temp;Humidity;BMP_temperature;BMP_pressure;BME280_temperature;BME280_humidity;BME280_pressure;Samples;Min_cycle;Max_cycle;Signal;HPM_P1;HPM_P2
2021/03/20 00:00:25;;;;;;;10.27;8.35;;;3.20;99.90;;;;;;5116290;28;20102;-78
2021/03/20 00:02:51;;;;;;;13.38;11.15;;;3.00;99.90;;;;;;5115705;28;20410;-78
2021/03/20 00:05:17;;;;;;;12.65;10.05;;;3.00;99.90;;;;;;5112321;28;20536;-78
2021/03/20 00:07:43;;;;;;;16.52;11.02;;;3.10;99.90;;;;;;5094976;28;20108;-78
2021/03/20 00:10:12;;;;;;;16.65;11.60;;;3.70;99.90;;;;;;5095182;28;20106;-78
2021/03/20 00:12:38;;;;;;;14.57;9.73;;;3.20;99.90;;;;;;5094552;28;20056;-78
2021/03/20 00:15:08;;;;;;;19.05;12.43;;;3.20;99.90;;;;;;5095656;28;20024;-78
2021/03/20 00:17:34;;;;;;;14.88;10.63;;;3.10;99.90;;;;;;5095080;28;20136;-78
2021/03/20 00:20:00;;;;;;;12.90;9.43;;;3.20;99.90;;;;;;5095196;28;20053;-78
2021/03/20 00:22:26;;;;;;;12.10;9.35;;;3.10;99.90;;;;;;5095221;28;20024;-78
2021/03/20 00:24:51;;;;;;;10.55;8.57;;;3.20;99.90;;;;;;5095244;28;20499;-78
2021/03/20 00:27:17;;;;;;;11.20;8.18;;;3.00;99.90;;;;;;5095105;28;20037;-78
2021/03/20 00:29:43;;;;;;;12.43;9.90;;;3.00;99.90;;;;;;5095197;28;20447;-78
2021/03/20 00:32:08;;;;;;;12.38;10.07;;;3.40;99.90;;;;;;5095197;28;20051;-78
2021/03/20 00:34:34;;;;;;;12.43;9.60;;;3.00;99.90;;;;;;5094899;28;20035;-78
2021/03/20 00:37:00;;;;;;;10.98;8.18;;;3.50;99.90;;;;;;5112145;28;20394;-78
2021/03/20 00:39:25;;;;;;;10.40;8.05;;;2.90;99.90;;;;;;5115312;28;20028;-78
2021/03/20 00:41:51;;;;;;;10.32;8.50;;;3.10;99.90;;;;;;5114979;28;20106;-78
2021/03/20 00:44:17;;;;;;;10.93;8.45;;;2.90;99.90;;;;;;5115477;28;20026;-78
2021/03/20 00:46:42;;;;;;;10.60;8.63;;;2.90;99.90;;;;;;5115199;28;20046;-78
2021/03/20 00:49:08;;;;;;;12.13;8.75;;;3.40;99.90;;;;;;5115425;28;20016;-78
2021/03/20 00:51:33;;;;;;;11.95;8.98;;;2.90;99.90;;;;;;5100417;28;20148;-78
2021/03/20 00:53:59;;;;;;;13.55;9.00;;;2.80;99.90;;;;;;5094730;28;20107;-78
2021/03/20 00:56:25;;;;;;;12.13;8.85;;;3.30;99.90;;;;;;5093410;28;20123;-78
2021/03/20 00:58:50;;;;;;;11.88;9.00;;;2.70;99.90;;;;;;5093180;28;20410;-78
2021/03/20 01:01:19;;;;;;;14.48;9.45;;;3.10;99.90;;;;;;5094502;28;20032;-78
2021/03/20 01:03:45;;;;;;;13.25;9.52;;;2.70;99.90;;;;;;5094406;28;20038;-78
2021/03/20 01:06:18;;;;;;;13.00;9.73;;;2.70;99.90;;;;;;5107378;28;20092;-78
2021/03/20 01:08:44;;;;;;;12.65;9.32;;;2.70;99.90;;;;;;5114799;28;20047;-78
2021/03/20 01:11:11;;;;;;;13.45;10.85;;;2.60;99.90;;;;;;5114530;28;20085;-78
2021/03/20 01:13:37;;;;;;;17.38;11.93;;;2.90;99.90;;;;;;5114496;28;20043;-78
2021/03/20 01:16:02;;;;;;;16.77;12.52;;;2.60;99.90;;;;;;5114408;28;20498;-78
2021/03/20 01:18:28;;;;;;;11.95;9.02;;;2.60;99.90;;;;;;5114897;28;20027;-78
2021/03/20 01:20:55;;;;;;;11.57;8.73;;;2.50;99.90;;;;;;5099769;28;20101;-78
2021/03/20 01:23:20;;;;;;;12.75;9.82;;;2.60;99.90;;;;;;5094391;28;20032;-78
2021/03/20 01:25:46;;;;;;;11.25;8.88;;;2.60;99.90;;;;;;5091984;28;20107;-78
2021/03/20 01:28:12;;;;;;;10.95;9.00;;;2.60;99.90;;;;;;5093966;28;20032;-78
2021/03/20 01:30:41;;;;;;;11.40;9.43;;;3.20;99.90;;;;;;5093324;28;20507;-78
2021/03/20 01:33:07;;;;;;;11.65;8.50;;;2.60;99.90;;;;;;5093913;28;20456;-78
2021/03/20 01:35:33;;;;;;;11.05;8.70;;;2.60;99.90;;;;;;5093754;28;20024;-78
2021/03/20 01:38:00;;;;;;;12.40;9.25;;;2.60;99.90;;;;;;5093387;28;20035;-78
2021/03/20 01:40:31;;;;;;;15.40;11.60;;;2.60;99.90;;;;;;5093640;28;20456;-78
2021/03/20 01:42:57;;;;;;;16.13;11.73;;;2.50;99.90;;;;;;5093679;28;20434;-78
2021/03/20 01:45:35;;;;;;;12.77;9.93;;;2.50;99.90;;;;;;5091679;28;20118;-78
2021/03/20 01:48:12;;;;;;;12.95;9.63;;;3.20;99.90;;;;;;5093256;28;20012;-78
2021/03/20 01:50:40;;;;;;;12.40;9.98;;;2.50;99.90;;;;;;5093600;28;20024;-78
2021/03/20 01:53:43;;;;;;;11.00;8.70;;;2.50;99.90;;;;;;5093197;28;20124;-78
2021/03/20 01:56:19;;;;;;;12.18;9.20;;;2.60;99.90;;;;;;5086501;28;20158;-78
2021/03/20 01:58:47;;;;;;;11.60;8.70;;;2.40;99.90;;;;;;5093345;28;20418;-77
2021/03/20 02:01:26;;;;;;;10.98;8.80;;;2.40;99.90;;;;;;5093316;28;20036;-79
2021/03/20 02:03:53;;;;;;;12.23;9.25;;;2.40;99.90;;;;;;5093015;28;20012;-79
2021/03/20 02:06:19;;;;;;;13.02;9.98;;;2.40;99.90;;;;;;5093387;28;20081;-78
2021/03/20 02:08:47;;;;;;;14.40;10.23;;;2.40;99.90;;;;;;5093031;28;20016;-78
2021/03/20 02:11:16;;;;;;;14.23;10.73;;;2.40;99.90;;;;;;5093527;28;20398;-78
2021/03/20 02:13:51;;;;;;;14.07;10.60;;;2.40;99.90;;;;;;5091985;28;20032;-78
2021/03/20 02:17:02;;;;;;;14.88;10.70;;;2.30;99.90;;;;;;5091928;28;20036;-78
2021/03/20 02:19:49;;;;;;;14.48;9.75;;;2.40;99.90;;;;;;5093097;28;20051;-78
2021/03/20 02:22:47;;;;;;;12.55;8.68;;;2.20;99.90;;;;;;5093201;28;20502;-78
2021/03/20 02:25:49;;;;;;;12.82;9.27;;;2.20;99.90;;;;;;5071176;28;20037;-78
2021/03/20 02:28:42;;;;;;;18.10;12.07;;;2.20;99.90;;;;;;5071037;28;20440;-78
2021/03/20 02:31:52;;;;;;;10.32;7.97;;;2.20;99.90;;;;;;5070937;28;20115;-78
2021/03/20 02:34:25;;;;;;;11.52;8.73;;;2.10;99.90;;;;;;5070916;28;20234;-78
2021/03/20 02:37:29;;;;;;;11.10;8.23;;;2.20;99.90;;;;;;5073260;28;20135;-78
2021/03/20 02:40:06;;;;;;;10.48;8.00;;;2.10;99.90;;;;;;4975593;28;20039;-78
2021/03/20 02:42:58;;;;;;;10.50;7.78;;;2.10;99.90;;;;;;4976081;28;20043;-78
2021/03/20 02:45:46;;;;;;;11.25;8.40;;;2.10;99.90;;;;;;4956544;29;20136;-78
2021/03/20 02:48:28;;;;;;;12.68;8.60;;;2.10;99.90;;;;;;4956287;28;20035;-78
2021/03/20 02:51:06;;;;;;;10.63;8.48;;;2.10;99.90;;;;;;4956187;28;20078;-78
2021/03/20 02:53:57;;;;;;;11.32;8.30;;;2.10;99.90;;;;;;4956573;28;20524;-78
2021/03/20 02:56:27;;;;;;;12.10;8.93;;;2.10;99.90;;;;;;4956524;28;20491;-79
2021/03/20 02:59:06;;;;;;;11.80;8.52;;;2.10;99.90;;;;;;4956682;29;20034;-79
2021/03/20 03:01:33;;;;;;;10.60;8.38;;;2.00;99.90;;;;;;4961237;28;20066;-79
2021/03/20 03:04:00;;;;;;;11.13;8.70;;;2.10;99.90;;;;;;4975123;28;20035;-79
2021/03/20 03:06:45;;;;;;;11.02;8.40;;;2.00;99.90;;;;;;4975559;28;20515;-78
2021/03/20 03:09:40;;;;;;;11.35;8.60;;;2.00;99.90;;;;;;4975753;28;20039;-78
2021/03/20 03:12:39;;;;;;;10.95;8.65;;;2.00;99.90;;;;;;4975444;28;20395;-78
2021/03/20 03:15:13;;;;;;;11.75;8.57;;;2.00;99.90;;;;;;4964454;28;20530;-78
2021/03/20 03:17:42;;;;;;;11.18;8.43;;;1.90;99.90;;;;;;5022003;28;20052;-78
2021/03/20 03:20:31;;;;;;;11.57;8.60;;;1.90;99.90;;;;;;5039283;28;20048;-78
2021/03/20 03:23:14;;;;;;;10.65;8.40;;;1.80;99.90;;;;;;5070146;28;20028;-78
2021/03/20 03:25:44;;;;;;;11.80;8.45;;;1.80;99.90;;;;;;5076254;28;20056;-79
2021/03/20 03:28:15;;;;;;;11.80;8.85;;;2.30;99.90;;;;;;5075978;28;20097;-79
2021/03/20 03:30:40;;;;;;;12.48;8.88;;;1.70;99.90;;;;;;5075861;28;20503;-79
2021/03/20 03:33:21;;;;;;;11.25;8.43;;;1.70;99.90;;;;;;5083568;28;20099;-78
2021/03/20 03:35:53;;;;;;;11.98;8.85;;;2.00;99.90;;;;;;5115515;28;20027;-78
2021/03/20 03:38:43;;;;;;;11.25;8.85;;;1.80;99.90;;;;;;5116567;28;20019;-78
2021/03/20 03:41:16;;;;;;;10.68;8.77;;;1.70;99.90;;;;;;5116342;28;20039;-78
2021/03/20 03:43:43;;;;;;;11.15;9.00;;;1.70;99.90;;;;;;5116494;28;20380;-78
2021/03/20 03:46:09;;;;;;;10.48;8.43;;;1.70;99.90;;;;;;5116284;28;20027;-78
2021/03/20 03:48:36;;;;;;;13.00;8.48;;;1.70;99.90;;;;;;5102886;28;20024;-78
2021/03/20 03:51:16;;;;;;;10.43;8.38;;;1.60;99.90;;;;;;5095059;28;20034;-78
2021/03/20 03:53:43;;;;;;;11.73;8.82;;;1.60;99.90;;;;;;5095940;28;20032;-78
2021/03/20 03:56:33;;;;;;;10.45;8.23;;;1.60;99.90;;;;;;5095856;28;20388;-78
2021/03/20 03:59:11;;;;;;;13.50;9.25;;;1.60;99.90;;;;;;5095782;28;20035;-78
2021/03/20 04:01:43;;;;;;;11.52;9.15;;;1.70;99.90;;;;;;5095765;28;20024;-78
2021/03/20 04:04:52;;;;;;;11.00;8.68;;;1.70;99.90;;;;;;5109807;28;20098;-78
2021/03/20 04:07:26;;;;;;;11.07;8.40;;;1.80;99.90;;;;;;5115409;28;20047;-78
2021/03/20 04:10:26;;;;;;;12.13;9.13;;;1.70;99.90;;;;;;5115990;28;20024;-78
2021/03/20 04:13:19;;;;;;;11.13;8.80;;;1.70;99.90;;;;;;5115576;28;20024;-78
2021/03/20 04:16:00;;;;;;;10.98;8.77;;;1.70;99.90;;;;;;5116185;28;20110;-78
2021/03/20 04:18:48;;;;;;;11.63;8.15;;;1.70;99.90;;;;;;5114894;28;20032;-78
2021/03/20 04:21:26;;;;;;;11.77;8.98;;;1.70;99.90;;;;;;5089566;28;20035;-78
2021/03/20 04:24:07;;;;;;;11.10;8.73;;;1.80;99.90;;;;;;5095120;28;20099;-78
2021/03/20 04:26:42;;;;;;;11.35;8.52;;;1.80;99.90;;;;;;5093838;28;20031;-78
2021/03/20 04:29:25;;;;;;;10.82;8.45;;;1.80;99.90;;;;;;5095105;28;20024;-78
2021/03/20 04:31:57;;;;;;;12.32;9.10;;;1.80;99.90;;;;;;5095332;28;20018;-78
2021/03/20 04:34:48;;;;;;;12.95;9.20;;;1.80;99.90;;;;;;5094618;28;20016;-78
2021/03/20 04:37:17;;;;;;;12.05;9.05;;;1.80;99.90;;;;;;5094984;28;20028;-78
2021/03/20 04:39:48;;;;;;;12.95;8.85;;;1.80;99.90;;;;;;5095194;28;20024;-78
2021/03/20 04:42:36;;;;;;;14.80;9.00;;;1.80;99.90;;;;;;5094717;28;20043;-78
2021/03/20 04:45:28;;;;;;;10.25;8.60;;;1.80;99.90;;;;;;5109103;28;20420;-78
2021/03/20 04:47:56;;;;;;;12.40;9.25;;;1.90;99.90;;;;;;5115172;28;20068;-78
2021/03/20 04:50:25;;;;;;;10.55;8.68;;;1.80;99.90;;;;;;5115026;28;20035;-78
2021/03/20 04:52:53;;;;;;;13.18;8.88;;;1.90;99.90;;;;;;5115437;28;20356;-78
2021/03/20 04:55:19;;;;;;;11.98;9.10;;;2.40;99.90;;;;;;5115127;28;20426;-78
2021/03/20 04:57:57;;;;;;;11.68;8.63;;;2.20;99.90;;;;;;5114977;28;20037;-78
2021/03/20 05:00:26;;;;;;;12.38;8.98;;;2.20;99.90;;;;;;5099295;28;20085;-78
2021/03/20 05:03:17;;;;;;;11.73;8.90;;;2.10;99.90;;;;;;5112541;28;20043;-78
2021/03/20 05:06:04;;;;;;;11.45;8.40;;;2.20;99.90;;;;;;5113585;28;20554;-78
2021/03/20 05:08:34;;;;;;;12.05;8.45;;;2.30;99.90;;;;;;5113414;28;20024;-78
2021/03/20 05:11:09;;;;;;;12.73;8.70;;;2.30;99.90;;;;;;5113396;28;20066;-78
2021/03/20 05:13:40;;;;;;;12.77;8.70;;;2.20;99.90;;;;;;5114653;28;20024;-78
2021/03/20 05:16:15;;;;;;;12.32;9.15;;;2.20;99.90;;;;;;5096622;28;20046;-78
2021/03/20 05:18:40;;;;;;;13.15;9.48;;;2.10;99.90;;;;;;5092770;28;20371;-78
2021/03/20 05:21:06;;;;;;;11.93;8.70;;;2.00;99.90;;;;;;5093888;28;20032;-78
2021/03/20 05:23:32;;;;;;;11.80;8.52;;;2.50;99.90;;;;;;5094294;28;20052;-78
2021/03/20 05:25:57;;;;;;;13.25;9.05;;;2.00;99.90;;;;;;5093519;28;20460;-78
2021/03/20 05:28:23;;;;;;;11.90;8.85;;;1.80;99.90;;;;;;5093894;28;20024;-78
2021/03/20 05:30:49;;;;;;;13.13;9.50;;;1.70;99.90;;;;;;5093764;28;20024;-78
2021/03/20 05:33:14;;;;;;;12.27;8.95;;;1.80;99.90;;;;;;5092930;28;20032;-78
2021/03/20 05:35:40;;;;;;;13.75;9.63;;;1.70;99.90;;;;;;5093705;28;20028;-78
2021/03/20 05:38:05;;;;;;;11.70;8.90;;;1.70;99.90;;;;;;5093969;28;20036;-78
2021/03/20 05:40:33;;;;;;;12.40;8.75;;;1.60;99.90;;;;;;5093544;28;20024;-78
2021/03/20 05:43:25;;;;;;;12.95;9.93;;;1.80;99.90;;;;;;5093780;28;20035;-78
2021/03/20 05:46:15;;;;;;;11.68;9.20;;;1.60;99.90;;;;;;5088836;28;20035;-78
2021/03/20 05:48:56;;;;;;;11.43;9.32;;;1.50;99.90;;;;;;5073429;28;20036;-78
2021/03/20 05:51:45;;;;;;;12.90;8.82;;;1.50;99.90;;;;;;5073365;28;20103;-78
2021/03/20 05:54:29;;;;;;;11.75;8.75;;;1.60;99.90;;;;;;5073519;28;20039;-78
2021/03/20 05:57:18;;;;;;;11.77;8.95;;;1.60;99.90;;;;;;5092639;28;20103;-79
2021/03/20 06:00:01;;;;;;;11.70;8.90;;;1.60;99.90;;;;;;5092620;28;20081;-79
2021/03/20 06:02:48;;;;;;;13.18;9.55;;;1.60;99.90;;;;;;5106415;28;20024;-79
2021/03/20 06:05:42;;;;;;;13.77;9.65;;;1.60;99.90;;;;;;5106252;28;20096;-78
2021/03/20 06:08:41;;;;;;;14.18;9.00;;;1.60;99.90;;;;;;5113577;28;20031;-78
2021/03/20 06:11:10;;;;;;;13.55;9.43;;;1.50;99.90;;;;;;5099598;28;20027;-78
2021/03/20 06:14:07;;;;;;;13.55;9.25;;;1.60;99.90;;;;;;5097619;28;20026;-78
2021/03/20 06:16:38;;;;;;;12.00;9.35;;;1.70;99.90;;;;;;5050220;28;20037;-78
2021/03/20 06:19:36;;;;;;;12.25;8.65;;;1.70;99.90;;;;;;5049902;28;20072;-78
2021/03/20 06:22:35;;;;;;;13.77;10.50;;;1.80;99.90;;;;;;5053710;28;20064;-78
2021/03/20 06:25:34;;;;;;;12.70;9.90;;;1.90;99.90;;;;;;5070810;28;20040;-78
2021/03/20 06:28:00;;;;;;;12.10;9.68;;;2.00;99.90;;;;;;5060685;28;20048;-78
2021/03/20 06:30:37;;;;;;;13.80;10.65;;;2.30;99.90;;;;;;5057136;28;20118;-78
2021/03/20 06:33:30;;;;;;;15.57;9.75;;;1.90;99.90;;;;;;5069820;28;20033;-78
2021/03/20 06:36:03;;;;;;;13.35;9.60;;;1.90;99.90;;;;;;5068000;28;20044;-78
2021/03/20 06:39:06;;;;;;;13.68;9.88;;;1.90;99.90;;;;;;5050566;28;20024;-78
2021/03/20 06:41:54;;;;;;;12.55;9.80;;;2.10;99.90;;;;;;5029424;28;20139;-78
2021/03/20 06:44:27;;;;;;;12.95;9.65;;;2.20;99.90;;;;;;5050122;28;20096;-78
2021/03/20 06:46:53;;;;;;;13.15;9.30;;;2.20;99.90;;;;;;5068438;28;20036;-78
2021/03/20 06:49:29;;;;;;;12.90;9.38;;;2.30;99.90;;;;;;5070502;28;20034;-78
2021/03/20 06:51:57;;;;;;;14.43;9.63;;;2.80;99.90;;;;;;5053835;28;20028;-78
2021/03/20 06:54:24;;;;;;;15.15;10.43;;;2.50;99.90;;;;;;5060331;28;20060;-78
2021/03/20 06:56:50;;;;;;;13.32;9.77;;;2.20;99.90;;;;;;5078903;28;20405;-78
2021/03/20 06:59:17;;;;;;;12.05;9.60;;;2.40;99.90;;;;;;5092572;28;20394;-78
2021/03/20 07:01:58;;;;;;;12.93;9.40;;;2.40;99.90;;;;;;5092176;28;20093;-78
2021/03/20 07:04:36;;;;;;;11.35;8.75;;;2.20;99.90;;;;;;5092706;28;20076;-78
2021/03/20 07:07:04;;;;;;;13.52;9.07;;;2.40;99.90;;;;;;5092654;28;20109;-78
2021/03/20 07:09:31;;;;;;;11.70;9.18;;;2.30;99.90;;;;;;5092621;28;20149;-78
2021/03/20 07:12:02;;;;;;;11.57;9.15;;;2.20;99.90;;;;;;5081166;28;20744;-78
2021/03/20 07:14:45;;;;;;;12.60;9.38;;;2.40;99.90;;;;;;5072648;28;20029;-78
2021/03/20 07:17:23;;;;;;;12.68;9.32;;;2.60;99.90;;;;;;5072685;28;20086;-78
2021/03/20 07:19:59;;;;;;;13.60;9.57;;;3.30;99.90;;;;;;5079009;28;20535;-78
2021/03/20 07:22:41;;;;;;;13.52;9.55;;;3.20;99.90;;;;;;5072720;28;20029;-78
2021/03/20 07:25:42;;;;;;;12.60;9.20;;;3.30;99.90;;;;;;5076155;28;20504;-78
2021/03/20 07:28:18;;;;;;;12.45;9.25;;;3.30;99.90;;;;;;5075796;28;20096;-78
2021/03/20 07:31:04;;;;;;;12.32;8.80;;;3.60;99.90;;;;;;5075725;28;20032;-78
2021/03/20 07:33:43;;;;;;;12.38;8.63;;;3.60;99.90;;;;;;5075911;28;20023;-78
2021/03/20 07:36:30;;;;;;;13.43;9.05;;;3.50;99.90;;;;;;5076038;28;20033;-78
2021/03/20 07:39:18;;;;;;;12.35;8.98;;;3.30;99.90;;;;;;5075980;28;20130;-78
2021/03/20 07:41:45;;;;;;;11.77;9.00;;;3.40;99.90;;;;;;5081188;28;20560;-78
2021/03/20 07:44:11;;;;;;;10.45;8.50;;;3.40;99.90;;;;;;5116252;28;20028;-78
2021/03/20 07:46:38;;;;;;;11.73;8.63;;;3.50;99.90;;;;;;5116281;28;20030;-78
2021/03/20 07:49:16;;;;;;;12.50;9.02;;;3.60;99.90;;;;;;5116673;28;20024;-79
2021/03/20 07:51:56;;;;;;;13.02;9.57;;;3.60;99.90;;;;;;5116393;28;20494;-78
2021/03/20 07:54:29;;;;;;;11.32;8.77;;;3.60;99.90;;;;;;5116324;28;20487;-79
2021/03/20 07:57:10;;;;;;;12.88;8.95;;;3.60;99.90;;;;;;5107367;28;20024;-79
2021/03/20 07:59:48;;;;;;;11.73;8.57;;;3.70;99.90;;;;;;5095644;28;20119;-79
2021/03/20 08:02:37;;;;;;;11.98;8.50;;;3.80;99.90;;;;;;5095764;28;20101;-78
2021/03/20 08:05:17;;;;;;;11.60;8.55;;;4.00;99.90;;;;;;5095754;28;20415;-78
2021/03/20 08:07:49;;;;;;;10.90;8.48;;;3.80;99.90;;;;;;5094341;28;20028;-78
2021/03/20 08:10:33;;;;;;;12.50;8.77;;;3.60;99.90;;;;;;5093854;28;20028;-78
2021/03/20 08:13:14;;;;;;;10.25;7.72;;;3.60;99.90;;;;;;5113423;28;20038;-78
2021/03/20 08:15:43;;;;;;;11.98;8.23;;;4.00;99.90;;;;;;5116247;28;20047;-78
2021/03/20 08:18:19;;;;;;;12.95;8.73;;;4.20;99.90;;;;;;5115914;28;20076;-78
2021/03/20 08:21:01;;;;;;;12.52;8.50;;;4.20;99.90;;;;;;5103062;28;20073;-78
2021/03/20 08:23:40;;;;;;;11.35;8.38;;;4.10;99.90;;;;;;5095446;28;20020;-78
2021/03/20 08:26:40;;;;;;;12.27;8.68;;;4.30;99.90;;;;;;5095060;28;20038;-78
2021/03/20 08:29:43;;;;;;;10.15;7.90;;;4.30;99.90;;;;;;5085223;28;20114;-79
2021/03/20 08:32:23;;;;;;;10.55;8.23;;;4.30;99.90;;;;;;5095001;28;20031;-78
2021/03/20 08:34:59;;;;;;;12.45;8.52;;;4.40;99.90;;;;;;5095094;28;20031;-78
2021/03/20 08:37:49;;;;;;;11.98;8.77;;;4.80;99.90;;;;;;5095035;28;20123;-78
2021/03/20 08:40:46;;;;;;;10.82;8.30;;;4.60;99.90;;;;;;5095067;28;20028;-78
2021/03/20 08:43:37;;;;;;;8.98;7.38;;;4.80;99.90;;;;;;5115568;28;20026;-78
2021/03/20 08:46:22;;;;;;;14.18;9.18;;;4.90;99.90;;;;;;5115161;28;20020;-78
2021/03/20 08:49:15;;;;;;;10.35;7.50;;;5.00;99.90;;;;;;5115362;28;20015;-78
2021/03/20 08:52:03;;;;;;;11.13;8.15;;;5.30;99.90;;;;;;5115280;28;20148;-78
2021/03/20 08:54:47;;;;;;;12.15;8.52;;;6.10;99.90;;;;;;5113643;28;20024;-78
2021/03/20 08:57:56;;;;;;;11.60;8.45;;;6.40;99.90;;;;;;5096824;28;20464;-78
2021/03/20 09:00:28;;;;;;;10.48;7.43;;;6.30;99.90;;;;;;5091248;28;20036;-78
2021/03/20 09:03:00;;;;;;;9.88;7.35;;;6.60;99.90;;;;;;5094259;28;20024;-78
2021/03/20 09:05:25;;;;;;;11.80;8.10;;;6.30;99.90;;;;;;5094420;28;20031;-78
2021/03/20 09:08:14;;;;;;;10.40;7.63;;;6.20;99.90;;;;;;5094021;28;20028;-78
2021/03/20 09:11:25;;;;;;;9.00;7.10;;;6.40;99.90;;;;;;5099484;28;20031;-78
2021/03/20 09:13:58;;;;;;;9.18;6.88;;;6.70;99.90;;;;;;5114534;28;20089;-78
2021/03/20 09:16:50;;;;;;;9.48;7.43;;;7.60;99.90;;;;;;5114627;28;20039;-78
2021/03/20 09:19:20;;;;;;;7.45;6.40;;;8.50;99.90;;;;;;5102158;28;20488;-78
2021/03/20 09:21:46;;;;;;;8.35;6.57;;;13.50;99.90;;;;;;5094670;28;20024;-78
2021/03/20 09:24:22;;;;;;;10.32;6.35;;;16.40;99.90;;;;;;5093863;28;20027;-78
2021/03/20 09:26:56;;;;;;;7.15;6.25;;;19.90;99.90;;;;;;5093981;28;20020;-78
2021/03/20 09:29:29;;;;;;;9.70;7.40;;;22.90;99.90;;;;;;5094017;28;20016;-78
2021/03/20 09:31:54;;;;;;;8.82;6.80;;;23.60;99.90;;;;;;5093962;28;20464;-78
2021/03/20 09:34:36;;;;;;;7.88;6.35;;;23.40;99.90;;;;;;5092541;28;20024;-80
2021/03/20 09:37:17;;;;;;;10.35;9.05;;;22.60;99.90;;;;;;5093710;28;20141;-79
2021/03/20 09:39:49;;;;;;;12.68;10.73;;;23.30;99.90;;;;;;5093637;28;20032;-79
2021/03/20 09:42:24;;;;;;;8.10;7.18;;;23.90;99.90;;;;;;5092359;28;20028;-79
2021/03/20 09:44:53;;;;;;;8.40;7.60;;;23.60;99.90;;;;;;5093792;28;20379;-79
2021/03/20 09:47:50;;;;;;;8.20;6.70;;;24.50;99.90;;;;;;5093426;28;20020;-79
2021/03/20 09:50:18;;;;;;;7.15;6.45;;;25.60;99.90;;;;;;5092657;28;20108;-79
2021/03/20 09:52:49;;;;;;;7.90;7.15;;;26.20;99.90;;;;;;5093273;28;20059;-79
2021/03/20 09:55:29;;;;;;;6.60;6.00;;;25.50;99.90;;;;;;5093575;28;20024;-79
2021/03/20 09:58:03;;;;;;;6.88;6.22;;;26.60;99.90;;;;;;5093481;28;20060;-79
2021/03/20 10:00:59;;;;;;;6.93;6.30;;;25.60;99.90;;;;;;5109434;28;20490;-80
2021/03/20 10:03:45;;;;;;;6.85;6.15;;;27.90;99.90;;;;;;5113922;28;20096;-80
2021/03/20 10:06:37;;;;;;;7.25;6.47;;;26.70;99.90;;;;;;5112207;28;20059;-80
2021/03/20 10:09:12;;;;;;;7.85;6.40;;;26.30;99.90;;;;;;5112405;28;20056;-80
2021/03/20 10:11:45;;;;;;;8.50;7.45;;;24.20;99.90;;;;;;5114034;28;20031;-80
2021/03/20 10:14:30;;;;;;;8.18;6.53;;;25.90;99.90;;;;;;5111546;28;20049;-80
2021/03/20 10:17:17;;;;;;;6.30;5.70;;;26.60;99.90;;;;;;5093365;28;20563;-80
2021/03/20 10:19:51;;;;;;;7.40;6.70;;;25.40;99.90;;;;;;5093218;28;20087;-80
2021/03/20 10:22:28;;;;;;;7.30;6.30;;;26.70;99.90;;;;;;5096595;28;20161;-80
2021/03/20 10:24:55;;;;;;;5.93;5.32;;;26.80;99.90;;;;;;5110393;28;20744;-80
2021/03/20 10:27:44;;;;;;;7.10;5.60;;;26.00;99.90;;;;;;5093097;28;20032;-80
2021/03/20 10:30:18;;;;;;;6.18;5.63;;;24.90;99.90;;;;;;5092802;28;20057;-80
2021/03/20 10:32:58;;;;;;;6.20;5.60;;;21.10;99.90;;;;;;5093216;28;20031;-80
2021/03/20 10:35:24;;;;;;;5.50;5.00;;;24.70;99.90;;;;;;5092775;28;20027;-81
2021/03/20 10:37:50;;;;;;;5.68;4.93;;;27.40;99.90;;;;;;5093088;28;20035;-82
2021/03/20 10:40:26;;;;;;;5.47;4.97;;;26.70;99.90;;;;;;5093042;28;20023;-81
2021/03/20 10:42:57;;;;;;;5.80;5.22;;;24.70;99.90;;;;;;5105821;28;20023;-81
2021/03/20 10:45:38;;;;;;;5.72;4.72;;;28.00;99.90;;;;;;5113442;28;20020;-81
2021/03/20 10:48:16;;;;;;;4.20;3.80;;;28.60;99.90;;;;;;5113634;28;20023;-81
2021/03/20 10:50:45;;;;;;;4.45;4.05;;;31.50;99.90;;;;;;5113202;28;20077;-81
2021/03/20 10:53:24;;;;;;;4.03;3.63;;;31.20;99.90;;;;;;5100897;28;20035;-81
2021/03/20 10:55:54;;;;;;;4.47;4.07;;;23.40;99.90;;;;;;5092881;28;20099;-80
2021/03/20 10:58:32;;;;;;;4.30;3.90;;;22.70;99.90;;;;;;5096230;28;20198;-80
2021/03/20 11:00:57;;;;;;;4.28;3.90;;;25.80;99.90;;;;;;5096519;28;20109;-80
2021/03/20 11:03:41;;;;;;;3.72;3.42;;;27.90;99.90;;;;;;5096404;28;20074;-81
2021/03/20 11:06:17;;;;;;;4.00;3.60;;;29.20;99.90;;;;;;5095929;28;20031;-81
2021/03/20 11:08:45;;;;;;;4.40;3.65;;;26.60;99.90;;;;;;5096688;28;20073;-81
2021/03/20 11:11:17;;;;;;;4.50;3.60;;;20.60;99.90;;;;;;5096375;28;20034;-81
2021/03/20 11:13:47;;;;;;;5.57;4.32;;;25.00;99.90;;;;;;5096362;28;20032;-81
2021/03/20 11:16:25;;;;;;;4.65;4.15;;;23.20;99.90;;;;;;5096367;28;20047;-81
2021/03/20 11:19:12;;;;;;;4.10;3.70;;;22.10;99.90;;;;;;5095932;28;20031;-81
2021/03/20 11:21:47;;;;;;;5.25;4.03;;;24.60;99.90;;;;;;5094881;28;20028;-81
2021/03/20 11:24:26;;;;;;;4.90;4.47;;;20.40;99.90;;;;;;5096000;28;20077;-80
2021/03/20 11:26:53;;;;;;;7.05;5.40;;;17.80;99.90;;;;;;5080017;28;20023;-81
2021/03/20 11:29:29;;;;;;;5.28;4.10;;;23.30;99.90;;;;;;5102969;28;20039;-81
2021/03/20 11:32:01;;;;;;;5.43;4.47;;;21.70;99.90;;;;;;5115962;28;20031;-81
2021/03/20 11:34:37;;;;;;;4.63;4.07;;;25.50;99.90;;;;;;5098344;28;20024;-81
2021/03/20 11:37:05;;;;;;;3.90;3.47;;;27.80;99.90;;;;;;5104103;28;20027;-81
2021/03/20 11:39:31;;;;;;;4.30;3.90;;;26.70;99.90;;;;;;5114474;28;20099;-81
2021/03/20 11:42:10;;;;;;;4.13;3.78;;;27.70;99.90;;;;;;5106514;28;20057;-81
2021/03/20 11:44:49;;;;;;;4.57;4.18;;;27.50;99.90;;;;;;5095672;28;20150;-81
2021/03/20 11:47:23;;;;;;;5.28;4.15;;;29.70;99.90;;;;;;5094376;28;20089;-80
2021/03/20 11:49:52;;;;;;;4.30;3.92;;;25.50;99.90;;;;;;5094942;28;20039;-81
2021/03/20 11:52:34;;;;;;;4.68;4.25;;;19.50;99.90;;;;;;5095410;28;20035;-81
2021/03/20 11:55:07;;;;;;;4.53;4.13;;;20.50;99.90;;;;;;5095434;28;20073;-81
2021/03/20 11:57:37;;;;;;;4.32;3.92;;;24.60;99.90;;;;;;5108346;28;20027;-81
2021/03/20 12:00:34;;;;;;;4.90;4.50;;;23.60;99.90;;;;;;5105966;28;20378;-80
2021/03/20 12:03:03;;;;;;;5.18;4.68;;;24.00;99.90;;;;;;5104031;28;20020;-80
2021/03/20 12:05:36;;;;;;;5.03;4.38;;;21.00;99.90;;;;;;5095207;28;20017;-80
2021/03/20 12:08:26;;;;;;;4.95;4.50;;;21.80;99.90;;;;;;5095327;28;20028;-80
2021/03/20 12:10:56;;;;;;;7.30;4.43;;;20.00;99.90;;;;;;5108937;28;20013;-80
2021/03/20 12:13:44;;;;;;;4.78;3.75;;;21.30;99.90;;;;;;5094550;28;20054;-80
2021/03/20 12:16:31;;;;;;;4.13;3.83;;;23.70;99.90;;;;;;5094348;28;20028;-83
2021/03/20 12:19:21;;;;;;;6.43;3.95;;;26.00;99.90;;;;;;5074849;28;20052;-82
2021/03/20 12:22:08;;;;;;;3.95;3.60;;;25.40;99.90;;;;;;5094408;28;20074;-83
2021/03/20 12:24:49;;;;;;;4.40;4.00;;;24.20;99.90;;;;;;5095019;28;20027;-81
2021/03/20 12:27:28;;;;;;;4.50;4.10;;;23.40;99.90;;;;;;5094981;28;20160;-80
2021/03/20 12:30:20;;;;;;;5.15;4.18;;;22.10;99.90;;;;;;5104938;28;20030;-81
2021/03/20 12:32:48;;;;;;;3.67;2.90;;;20.00;99.90;;;;;;5114811;28;20719;-80
2021/03/20 12:35:19;;;;;;;3.65;3.35;;;22.40;99.90;;;;;;5115144;28;20024;-81
2021/03/20 12:37:47;;;;;;;3.88;3.53;;;18.50;99.90;;;;;;5115626;28;20016;-81
2021/03/20 12:40:14;;;;;;;3.78;3.47;;;18.40;99.90;;;;;;5115265;28;20023;-81
2021/03/20 12:42:40;;;;;;;2.85;2.65;;;19.90;99.90;;;;;;5115344;28;20019;-81
2021/03/20 12:45:08;;;;;;;3.40;3.10;;;22.50;99.90;;;;;;5101581;28;20043;-81
2021/03/20 12:47:34;;;;;;;3.30;3.00;;;21.80;99.90;;;;;;5094494;28;20020;-81
2021/03/20 12:50:00;;;;;;;3.35;3.05;;;24.40;99.90;;;;;;5094898;28;20039;-81
2021/03/20 12:52:26;;;;;;;3.28;2.97;;;25.20;99.90;;;;;;5095184;28;20103;-81
2021/03/20 12:54:57;;;;;;;2.85;2.65;;;26.20;99.90;;;;;;5094856;28;20027;-81
2021/03/20 12:57:25;;;;;;;3.35;2.65;;;27.00;99.90;;;;;;5094820;28;20024;-81
2021/03/20 12:59:51;;;;;;;2.67;2.47;;;24.80;99.90;;;;;;5103993;28;20071;-80
2021/03/20 13:02:18;;;;;;;2.88;2.65;;;24.70;99.90;;;;;;5113875;28;20058;-80
2021/03/20 13:04:45;;;;;;;3.10;2.70;;;25.80;99.90;;;;;;5115168;28;20028;-81
2021/03/20 13:07:11;;;;;;;3.67;3.17;;;25.70;99.90;;;;;;5114972;28;20102;-81
2021/03/20 13:09:37;;;;;;;3.60;3.30;;;25.50;99.90;;;;;;5114936;28;20119;-81
2021/03/20 13:12:04;;;;;;;4.63;3.08;;;24.80;99.90;;;;;;5114761;28;20055;-81
2021/03/20 13:14:30;;;;;;;4.43;3.28;;;24.90;99.90;;;;;;5104818;28;20016;-81
2021/03/20 13:16:55;;;;;;;4.43;3.33;;;25.20;99.90;;;;;;5094469;28;20092;-81
2021/03/20 13:19:21;;;;;;;3.60;3.30;;;24.50;99.90;;;;;;5092701;28;20513;-81
2021/03/20 13:21:47;;;;;;;4.10;3.60;;;22.70;99.90;;;;;;5093155;28;20023;-81
2021/03/20 13:24:13;;;;;;;3.60;3.30;;;22.10;99.90;;;;;;5094151;28;20466;-81
2021/03/20 13:26:39;;;;;;;4.47;3.65;;;21.50;99.90;;;;;;5094133;28;20145;-81
2021/03/20 13:29:05;;;;;;;4.20;3.90;;;22.30;99.90;;;;;;5093600;28;20452;-81
2021/03/20 13:31:31;;;;;;;4.95;3.28;;;23.00;99.90;;;;;;5092854;28;20046;-81